Time;durP1;ratioP1;P1;durP2;ratioP2;P2;SDS_P1;SDS_P2;PMS_P1;PMS_P2;Temp;Humidity;BMP_temperature;BMP_pressure;BME280_temperature;BME280_humidity;BME280_pressure;Samples;Min_cycle;Max_cycle;Signal;HPM_P1;HPM_P2
2022/09/28 00:01:39;;;;;;;8.00;4.35;;;9.90;99.90;;;;;;5031100;28;20505;-46
2022/09/28 00:04:25;;;;;;;7.85;5.05;;;9.90;99.90;;;;;;5050296;28;20120;-47
2022/09/28 00:07:11;;;;;;;5.43;4.90;;;9.80;99.90;;;;;;5044739;28;20068;-48
2022/09/28 00:09:57;;;;;;;5.90;4.82;;;9.80;99.90;;;;;;5030772;28;20045;-48
2022/09/28 00:12:43;;;;;;;6.53;5.05;;;9.80;99.90;;;;;;5047702;28;20033;-47
2022/09/28 00:15:29;;;;;;;7.38;5.15;;;9.60;99.90;;;;;;5050274;28;20112;-47
2022/09/28 00:18:15;;;;;;;6.50;5.20;;;9.70;99.90;;;;;;5030997;28;20048;-47
2022/09/28 00:21:07;;;;;;;5.72;4.90;;;9.60;99.90;;;;;;5046023;28;20040;-46
2022/09/28 00:24:11;;;;;;;5.20;4.70;;;9.70;99.90;;;;;;5036898;28;20026;-49
2022/09/28 00:27:00;;;;;;;5.85;4.93;;;9.80;99.90;;;;;;5039893;28;20029;-53
2022/09/28 00:29:46;;;;;;;5.80;5.20;;;9.80;99.90;;;;;;5047980;28;20079;-47
2022/09/28 00:32:32;;;;;;;5.97;5.38;;;9.90;99.90;;;;;;5021537;28;20041;-52
2022/09/28 00:35:18;;;;;;;7.28;5.45;;;9.80;99.90;;;;;;5050327;28;20028;-48
2022/09/28 00:38:04;;;;;;;6.10;5.20;;;9.80;99.90;;;;;;5048849;28;20037;-51
2022/09/28 00:40:50;;;;;;;5.80;5.20;;;9.80;99.90;;;;;;5038657;28;20520;-49
2022/09/28 00:43:36;;;;;;;7.55;5.50;;;9.80;99.90;;;;;;5040847;28;20041;-50
2022/09/28 00:46:33;;;;;;;7.10;5.75;;;9.90;99.90;;;;;;5031892;28;20048;-47
2022/09/28 00:49:27;;;;;;;6.00;5.18;;;9.80;99.90;;;;;;5043744;28;20075;-46
2022/09/28 00:52:25;;;;;;;5.72;5.13;;;9.90;99.90;;;;;;5047708;28;20029;-48
2022/09/28 00:55:16;;;;;;;6.05;5.53;;;10.00;99.90;;;;;;5041254;28;20037;-47
2022/09/28 00:58:04;;;;;;;8.00;5.68;;;10.00;99.90;;;;;;5030833;28;20032;-46
2022/09/28 01:00:51;;;;;;;6.80;5.75;;;10.00;99.90;;;;;;5041816;28;20029;-51
2022/09/28 01:03:44;;;;;;;6.60;5.88;;;10.00;99.90;;;;;;5043011;28;20041;-47
2022/09/28 01:06:34;;;;;;;8.25;5.93;;;10.00;99.90;;;;;;5041523;28;20030;-48
2022/09/28 01:09:21;;;;;;;6.20;5.30;;;10.10;99.90;;;;;;5030092;28;20052;-46
2022/09/28 01:12:07;;;;;;;6.05;5.45;;;10.10;99.90;;;;;;5030846;28;20410;-51
2022/09/28 01:14:53;;;;;;;5.85;5.00;;;10.20;99.90;;;;;;5047977;28;20051;-49
2022/09/28 01:17:54;;;;;;;9.77;5.70;;;10.20;99.90;;;;;;5042780;28;20405;-47
2022/09/28 01:20:52;;;;;;;6.60;5.07;;;10.30;99.90;;;;;;5032615;28;20094;-47
2022/09/28 01:24:22;;;;;;;5.70;4.70;;;10.30;99.90;;;;;;5049267;28;20029;-48
2022/09/28 01:27:19;;;;;;;5.35;4.75;;;10.40;99.90;;;;;;5036404;28;20034;-47
2022/09/28 01:30:11;;;;;;;6.30;5.30;;;10.40;99.90;;;;;;5033154;28;20052;-49
2022/09/28 01:33:00;;;;;;;6.40;5.22;;;10.30;99.90;;;;;;5029832;28;20026;-49
2022/09/28 01:36:04;;;;;;;5.63;5.13;;;10.20;99.90;;;;;;5030866;28;20022;-50
2022/09/28 01:38:54;;;;;;;5.68;5.07;;;10.10;99.90;;;;;;5031497;28;20029;-52
2022/09/28 01:41:44;;;;;;;5.53;5.03;;;10.10;99.90;;;;;;5048041;28;20392;-47
2022/09/28 01:44:38;;;;;;;5.20;4.70;;;10.00;99.90;;;;;;5029676;28;20037;-47
2022/09/28 01:47:25;;;;;;;6.68;4.60;;;10.00;99.90;;;;;;5035940;28;20037;-46
2022/09/28 01:50:18;;;;;;;5.60;4.10;;;9.90;99.90;;;;;;5035343;28;20113;-47
2022/09/28 01:53:18;;;;;;;5.70;4.55;;;9.90;99.90;;;;;;5045303;28;20037;-48
2022/09/28 01:56:12;;;;;;;5.00;4.45;;;9.90;99.90;;;;;;5049105;28;20048;-52
2022/09/28 01:59:06;;;;;;;5.55;4.45;;;9.80;99.90;;;;;;5029484;28;20474;-49
2022/09/28 02:01:59;;;;;;;4.90;4.40;;;9.80;99.90;;;;;;5038721;28;20060;-47
2022/09/28 02:04:54;;;;;;;5.07;4.00;;;9.80;99.90;;;;;;5010674;28;20057;-49
2022/09/28 02:07:47;;;;;;;4.82;4.40;;;9.80;99.90;;;;;;5043327;28;20056;-47
2022/09/28 02:10:48;;;;;;;4.72;3.83;;;9.80;99.90;;;;;;5024627;28;20033;-47
2022/09/28 02:13:42;;;;;;;4.22;3.72;;;9.80;99.90;;;;;;5037142;28;20115;-48
2022/09/28 02:16:31;;;;;;;4.95;4.10;;;9.90;99.90;;;;;;5030397;28;20021;-51
2022/09/28 02:19:21;;;;;;;6.18;4.13;;;9.80;99.90;;;;;;5029254;28;20108;-47
2022/09/28 02:22:32;;;;;;;7.15;3.83;;;9.90;99.90;;;;;;5029367;28;20432;-46
2022/09/28 02:25:18;;;;;;;4.35;3.88;;;9.90;99.90;;;;;;5035655;28;20489;-50
2022/09/28 02:28:06;;;;;;;4.45;3.83;;;9.90;99.90;;;;;;5035942;28;20036;-49
2022/09/28 02:30:52;;;;;;;3.88;3.47;;;9.90;99.90;;;;;;5031331;28;20029;-48
2022/09/28 02:33:42;;;;;;;5.10;3.40;;;9.80;99.90;;;;;;5029439;28;20482;-52
2022/09/28 02:36:29;;;;;;;4.60;3.58;;;9.70;99.90;;;;;;5039368;28;20094;-48
2022/09/28 02:39:16;;;;;;;4.80;3.58;;;9.70;99.90;;;;;;5048765;28;20063;-47
2022/09/28 02:42:17;;;;;;;3.92;3.42;;;9.80;99.90;;;;;;5047960;28;20063;-47
2022/09/28 02:45:36;;;;;;;4.38;3.80;;;9.80;99.90;;;;;;5048589;28;20409;-50
2022/09/28 02:48:59;;;;;;;4.38;3.97;;;9.70;99.90;;;;;;5042312;28;20044;-49
2022/09/28 02:52:26;;;;;;;5.05;4.43;;;9.70;99.90;;;;;;5029288;28;20108;-48
2022/09/28 02:55:21;;;;;;;7.80;5.38;;;9.60;99.90;;;;;;5029964;28;20053;-50
2022/09/28 02:58:29;;;;;;;5.93;4.95;;;9.60;99.90;;;;;;5039038;28;20025;-48
2022/09/28 03:01:38;;;;;;;6.65;5.22;;;9.60;99.90;;;;;;5051906;28;20057;-49
2022/09/28 03:04:59;;;;;;;6.78;5.22;;;9.60;99.90;;;;;;5038909;28;20099;-51
2022/09/28 03:08:01;;;;;;;6.32;5.22;;;9.50;99.90;;;;;;5053839;28;20029;-48
2022/09/28 03:11:02;;;;;;;6.07;4.82;;;9.50;99.90;;;;;;5051851;28;20029;-48
2022/09/28 03:13:50;;;;;;;7.18;5.50;;;9.60;99.90;;;;;;5045541;28;20028;-47
2022/09/28 03:16:36;;;;;;;7.60;6.53;;;9.60;99.90;;;;;;5033564;28;20075;-48
2022/09/28 03:19:26;;;;;;;7.32;6.63;;;9.60;99.90;;;;;;5048815;28;20508;-51
2022/09/28 03:22:12;;;;;;;8.30;6.55;;;9.70;99.90;;;;;;5037365;28;20493;-51
2022/09/28 03:24:58;;;;;;;8.23;5.97;;;9.70;99.90;;;;;;5034200;28;20123;-49
2022/09/28 03:27:44;;;;;;;5.93;4.72;;;9.70;99.90;;;;;;5051671;28;20033;-46
2022/09/28 03:30:30;;;;;;;4.63;3.95;;;9.70;99.90;;;;;;5049343;28;20040;-48
2022/09/28 03:33:16;;;;;;;3.92;3.58;;;9.80;99.90;;;;;;5033105;28;20041;-47
2022/09/28 03:36:02;;;;;;;3.95;3.47;;;9.80;99.90;;;;;;5049588;28;20523;-48
2022/09/28 03:38:50;;;;;;;3.40;2.80;;;9.80;99.90;;;;;;5051596;28;20047;-47
2022/09/28 03:41:36;;;;;;;4.45;2.70;;;9.80;99.90;;;;;;5011719;28;20053;-47
2022/09/28 03:44:22;;;;;;;5.03;2.80;;;9.80;99.90;;;;;;5018700;28;20036;-47
2022/09/28 03:47:08;;;;;;;3.80;3.17;;;9.90;99.90;;;;;;5052450;28;20057;-47
2022/09/28 03:49:54;;;;;;;4.95;3.20;;;9.90;99.90;;;;;;5040024;28;20043;-48
2022/09/28 03:52:40;;;;;;;7.60;3.20;;;9.80;99.90;;;;;;5048602;28;20039;-47
2022/09/28 03:55:26;;;;;;;10.88;3.30;;;9.70;99.90;;;;;;5051513;28;20025;-48
2022/09/28 03:58:12;;;;;;;3.80;3.00;;;9.70;99.90;;;;;;5037456;28;20036;-47
2022/09/28 04:01:04;;;;;;;3.40;2.80;;;9.60;99.90;;;;;;5031716;28;20081;-49
2022/09/28 04:03:54;;;;;;;3.58;3.00;;;9.60;99.90;;;;;;5033000;28;20033;-46
2022/09/28 04:06:40;;;;;;;7.38;4.88;;;9.60;99.90;;;;;;5032775;28;20040;-46
2022/09/28 04:09:26;;;;;;;4.18;3.30;;;9.60;99.90;;;;;;5050581;28;20140;-46
2022/09/28 04:12:12;;;;;;;3.58;3.17;;;9.50;99.90;;;;;;5046595;28;20065;-47
2022/09/28 04:14:58;;;;;;;5.10;3.40;;;9.60;99.90;;;;;;5041880;28;20025;-47
2022/09/28 04:17:44;;;;;;;5.15;3.10;;;9.60;99.90;;;;;;5033334;28;20048;-47
2022/09/28 04:20:32;;;;;;;3.88;3.22;;;9.60;99.90;;;;;;5032334;28;20076;-48
2022/09/28 04:23:19;;;;;;;7.18;3.35;;;9.70;99.90;;;;;;5021420;28;20029;-48
2022/09/28 04:26:08;;;;;;;5.53;3.50;;;9.70;99.90;;;;;;5049382;28;20059;-49
2022/09/28 04:32:00;;;;;;;5.32;3.88;;;9.80;99.90;;;;;;5036212;28;20038;-46
2022/09/28 04:34:46;;;;;;;28.40;6.53;;;9.70;99.90;;;;;;5031361;28;20026;-46
2022/09/28 04:37:32;;;;;;;7.60;3.40;;;9.80;99.90;;;;;;5039258;28;20030;-48
2022/09/28 04:40:18;;;;;;;4.28;3.35;;;9.80;99.90;;;;;;5033799;28;20037;-48
2022/09/28 04:43:04;;;;;;;4.47;3.25;;;9.80;99.90;;;;;;5032425;28;20029;-49
2022/09/28 04:45:50;;;;;;;3.40;3.10;;;9.80;99.90;;;;;;5030456;28;20034;-49
2022/09/28 04:48:36;;;;;;;5.47;3.55;;;9.80;99.90;;;;;;5047800;28;20036;-50
2022/09/28 04:51:22;;;;;;;14.10;5.15;;;9.80;99.90;;;;;;5009810;28;20034;-47
2022/09/28 04:54:08;;;;;;;10.25;4.05;;;9.80;99.90;;;;;;5048725;28;20507;-50
2022/09/28 04:56:54;;;;;;;6.80;3.90;;;9.80;99.90;;;;;;5038825;28;20038;-53
2022/09/28 04:59:40;;;;;;;3.97;3.33;;;9.80;99.90;;;;;;5030779;28;20034;-46
2022/09/28 05:02:26;;;;;;;4.32;3.50;;;9.90;99.90;;;;;;5025174;28;20164;-53
2022/09/28 05:05:12;;;;;;;5.93;4.53;;;9.90;99.90;;;;;;5032685;28;20037;-48
2022/09/28 05:08:00;;;;;;;7.15;5.30;;;9.90;99.90;;;;;;5011364;28;20040;-52
2022/09/28 05:10:55;;;;;;;6.90;4.38;;;9.90;99.90;;;;;;5032181;28;20099;-50
2022/09/28 05:13:44;;;;;;;7.53;3.75;;;9.90;99.90;;;;;;5037119;28;20029;-52
2022/09/28 05:16:32;;;;;;;5.45;3.70;;;10.00;99.90;;;;;;5049042;28;20028;-50
2022/09/28 05:19:18;;;;;;;9.93;4.13;;;10.00;99.90;;;;;;5039164;28;20129;-51
2022/09/28 05:22:06;;;;;;;14.23;4.95;;;10.10;99.90;;;;;;5030739;28;20037;-49
2022/09/28 05:24:53;;;;;;;11.43;4.03;;;10.10;99.90;;;;;;5045062;28;20393;-53
2022/09/28 05:27:39;;;;;;;8.20;3.65;;;10.10;99.90;;;;;;5036032;28;20111;-52
2022/09/28 05:30:27;;;;;;;10.50;4.50;;;10.10;99.90;;;;;;5031972;28;20566;-49
2022/09/28 05:33:13;;;;;;;7.03;4.15;;;10.10;99.90;;;;;;5034083;28;20025;-52
2022/09/28 05:36:02;;;;;;;7.30;3.78;;;10.10;99.90;;;;;;5038405;28;20029;-51
2022/09/28 05:38:48;;;;;;;8.07;4.47;;;10.10;99.90;;;;;;5037636;28;20029;-47
2022/09/28 05:41:34;;;;;;;4.72;3.97;;;10.10;99.90;;;;;;5030329;28;20079;-49
2022/09/28 05:44:23;;;;;;;10.77;4.25;;;10.00;99.90;;;;;;5017396;28;20026;-50
2022/09/28 05:47:09;;;;;;;7.65;4.65;;;10.10;99.90;;;;;;5049645;28;20037;-48
2022/09/28 05:49:55;;;;;;;11.43;5.25;;;10.10;99.90;;;;;;5047450;28;20021;-51
2022/09/28 05:52:42;;;;;;;9.40;4.47;;;10.00;99.90;;;;;;5016013;28;20032;-50
2022/09/28 05:55:31;;;;;;;6.93;4.70;;;10.00;99.90;;;;;;5032235;28;20060;-51
2022/09/28 05:58:17;;;;;;;9.63;5.60;;;10.00;99.90;;;;;;5040052;28;20029;-52
2022/09/28 06:01:05;;;;;;;15.38;9.40;;;10.00;99.90;;;;;;5039187;28;20037;-52
2022/09/28 06:03:53;;;;;;;11.55;8.15;;;10.00;99.90;;;;;;5033858;28;20029;-49
2022/09/28 06:06:39;;;;;;;16.60;9.38;;;10.00;99.90;;;;;;5039743;28;20130;-47
2022/09/28 06:09:25;;;;;;;15.60;12.55;;;10.00;99.90;;;;;;5033488;28;20370;-49
2022/09/28 06:12:11;;;;;;;11.98;8.77;;;10.00;99.90;;;;;;5043621;28;20090;-46
2022/09/28 06:15:00;;;;;;;11.32;9.05;;;10.00;99.90;;;;;;5043706;28;20405;-50
2022/09/28 06:17:46;;;;;;;13.38;9.60;;;10.10;99.90;;;;;;5030434;28;20113;-49
2022/09/28 06:20:34;;;;;;;9.85;8.13;;;10.20;99.90;;;;;;5047122;28;20037;-49
2022/09/28 06:23:20;;;;;;;11.45;8.50;;;10.20;99.90;;;;;;5044698;28;20030;-52
2022/09/28 06:26:06;;;;;;;10.13;7.20;;;10.20;99.90;;;;;;5030574;28;20061;-52
2022/09/28 06:28:52;;;;;;;12.98;8.30;;;10.20;99.90;;;;;;5040566;28;20496;-50
2022/09/28 06:31:41;;;;;;;12.57;8.57;;;10.20;99.90;;;;;;5048570;28;20091;-48
2022/09/28 06:34:29;;;;;;;8.55;6.93;;;10.30;99.90;;;;;;5052624;28;20041;-49
2022/09/28 06:37:14;;;;;;;6.82;6.07;;;10.30;99.90;;;;;;5035941;28;20036;-49
2022/09/28 06:40:01;;;;;;;7.15;5.78;;;10.30;99.90;;;;;;5034347;28;20056;-49
2022/09/28 06:43:09;;;;;;;7.15;5.70;;;10.40;99.90;;;;;;5034410;28;20033;-49
2022/09/28 06:45:55;;;;;;;15.40;11.82;;;10.40;99.90;;;;;;5052851;28;20519;-50
2022/09/28 06:48:41;;;;;;;14.38;9.40;;;10.40;99.90;;;;;;5051109;28;20052;-51
2022/09/28 06:51:27;;;;;;;10.73;7.30;;;10.50;99.90;;;;;;5046164;28;20032;-52
2022/09/28 06:54:13;;;;;;;8.15;6.40;;;10.50;99.90;;;;;;5037600;28;20481;-50
2022/09/28 06:56:59;;;;;;;8.65;6.68;;;10.60;99.90;;;;;;5037828;28;20099;-47
2022/09/28 06:59:45;;;;;;;8.52;6.00;;;10.60;99.90;;;;;;5059725;28;20488;-48
2022/09/28 07:02:31;;;;;;;7.05;5.55;;;10.60;99.90;;;;;;5032025;28;20049;-47
2022/09/28 07:05:20;;;;;;;7.30;5.63;;;10.50;99.90;;;;;;5034817;28;20041;-48
2022/09/28 07:08:06;;;;;;;12.30;7.03;;;10.50;99.90;;;;;;5040442;28;20563;-48
2022/09/28 07:10:55;;;;;;;18.13;11.45;;;10.50;99.90;;;;;;5037990;28;20087;-49
2022/09/28 07:13:40;;;;;;;14.55;9.02;;;10.50;99.90;;;;;;5044729;28;20025;-53
2022/09/28 07:16:27;;;;;;;10.88;7.38;;;10.40;99.90;;;;;;5032100;28;20029;-52
2022/09/28 07:19:15;;;;;;;20.05;8.68;;;10.40;99.90;;;;;;5034127;28;20503;-50
2022/09/28 07:22:01;;;;;;;12.63;8.63;;;10.40;99.90;;;;;;5032305;28;20571;-51
2022/09/28 07:24:47;;;;;;;11.52;8.63;;;10.40;99.90;;;;;;5031864;28;20030;-48
2022/09/28 07:27:35;;;;;;;13.90;7.03;;;10.40;99.90;;;;;;5031790;28;20444;-48
2022/09/28 07:30:23;;;;;;;10.40;7.57;;;10.30;99.90;;;;;;5031637;28;20053;-47
2022/09/28 07:33:14;;;;;;;12.65;9.20;;;10.30;99.90;;;;;;5031496;28;20022;-49
2022/09/28 07:36:05;;;;;;;7.95;7.15;;;10.30;99.90;;;;;;5032028;28;20024;-50
2022/09/28 07:38:51;;;;;;;10.30;6.28;;;10.20;99.90;;;;;;5031237;28;20025;-49
2022/09/28 07:41:38;;;;;;;8.00;6.18;;;10.10;99.90;;;;;;5032571;28;20397;-65
2022/09/28 07:44:24;;;;;;;7.13;6.35;;;10.10;99.90;;;;;;5032057;28;20037;-49
2022/09/28 07:47:10;;;;;;;7.35;5.22;;;10.00;99.90;;;;;;5029865;28;20037;-50
2022/09/28 07:49:56;;;;;;;7.30;5.20;;;10.10;99.90;;;;;;5032727;28;20047;-50
2022/09/28 07:52:44;;;;;;;5.63;5.00;;;10.10;99.90;;;;;;5030726;28;20061;-48
2022/09/28 07:55:30;;;;;;;11.45;8.10;;;10.00;99.90;;;;;;5029996;28;20072;-50
2022/09/28 07:58:20;;;;;;;6.15;5.13;;;10.10;99.90;;;;;;5030853;28;20116;-49
2022/09/28 08:01:09;;;;;;;13.38;7.10;;;10.00;99.90;;;;;;5029441;28;20211;-51
2022/09/28 08:03:55;;;;;;;9.00;4.32;;;10.10;99.90;;;;;;5028248;28;20052;-47
2022/09/28 08:06:41;;;;;;;6.25;4.30;;;10.10;99.90;;;;;;5039144;28;20025;-46
2022/09/28 08:09:27;;;;;;;8.80;4.50;;;10.10;99.90;;;;;;5038876;28;20041;-46
2022/09/28 08:12:13;;;;;;;3.78;3.38;;;10.20;99.90;;;;;;5033638;28;20034;-50
2022/09/28 08:14:59;;;;;;;3.90;3.10;;;10.20;99.90;;;;;;5034034;28;20036;-47
2022/09/28 08:17:47;;;;;;;3.65;3.05;;;10.20;99.90;;;;;;5035547;28;20083;-48
2022/09/28 08:23:46;;;;;;;3.50;2.60;;;10.20;99.90;;;;;;5035843;28;20033;-50
2022/09/28 08:26:32;;;;;;;3.88;2.67;;;10.20;99.90;;;;;;5047403;28;20025;-48
2022/09/28 08:29:18;;;;;;;5.53;3.13;;;10.30;99.90;;;;;;5040827;28;20045;-49
2022/09/28 08:32:07;;;;;;;8.50;4.45;;;10.30;99.90;;;;;;5029259;28;20034;-50
2022/09/28 08:34:54;;;;;;;4.93;3.13;;;10.40;99.90;;;;;;5030035;28;20385;-47
2022/09/28 08:37:40;;;;;;;5.35;2.92;;;10.50;99.90;;;;;;5030965;28;20442;-53
2022/09/28 08:40:26;;;;;;;3.20;2.28;;;10.50;99.90;;;;;;5029813;28;20046;-48
2022/09/28 08:43:30;;;;;;;5.85;2.60;;;10.50;99.90;;;;;;5029770;28;20155;-51
2022/09/28 08:46:19;;;;;;;2.92;2.35;;;10.60;99.90;;;;;;5026991;28;20029;-50
2022/09/28 08:49:16;;;;;;;4.57;2.30;;;10.60;99.90;;;;;;5031402;28;20059;-51
2022/09/28 08:52:26;;;;;;;2.35;2.15;;;10.80;99.90;;;;;;5027266;28;20033;-49
2022/09/28 08:55:17;;;;;;;3.58;2.50;;;10.90;99.90;;;;;;5025480;28;20489;-55
2022/09/28 08:58:22;;;;;;;4.10;2.20;;;10.80;99.90;;;;;;5029862;28;20577;-53
2022/09/28 09:01:15;;;;;;;2.92;2.30;;;10.80;99.90;;;;;;5030020;28;20033;-52
2022/09/28 09:04:03;;;;;;;3.50;2.17;;;10.90;99.90;;;;;;5032155;28;20037;-47
2022/09/28 09:06:49;;;;;;;2.67;2.20;;;11.00;99.90;;;;;;5029969;28;20413;-52
2022/09/28 09:10:16;;;;;;;2.75;1.95;;;11.10;99.90;;;;;;5026628;28;20236;-52
2022/09/28 09:13:04;;;;;;;;;;;11.20;99.90;;;;;;5028153;28;20100;-48
2022/09/28 09:16:07;;;;;;;3.42;2.25;;;11.30;99.90;;;;;;5026195;28;20336;-48
2022/09/28 09:19:17;;;;;;;3.47;2.63;;;11.40;99.90;;;;;;5024311;28;20728;-50
2022/09/28 09:22:08;;;;;;;4.75;2.72;;;11.50;99.90;;;;;;5023899;28;20044;-47
2022/09/28 09:25:13;;;;;;;4.38;2.83;;;11.50;99.90;;;;;;5045496;28;20030;-48
2022/09/28 09:28:18;;;;;;;2.92;2.20;;;11.50;99.90;;;;;;5058582;28;20555;-49
2022/09/28 09:31:32;;;;;;;4.18;2.28;;;11.50;99.90;;;;;;5014417;28;20051;-50
2022/09/28 09:34:39;;;;;;;4.53;2.60;;;11.50;99.90;;;;;;5048741;28;20516;-49
2022/09/28 09:37:45;;;;;;;3.58;3.13;;;11.20;99.90;;;;;;5044347;28;20059;-51
2022/09/28 09:41:09;;;;;;;3.13;2.70;;;11.10;99.90;;;;;;5049797;28;20052;-51
2022/09/28 09:44:19;;;;;;;2.72;2.10;;;11.30;99.90;;;;;;5039855;28;20919;-49
2022/09/28 09:47:19;;;;;;;2.83;2.55;;;11.20;99.90;;;;;;5047964;28;20083;-49
2022/09/28 09:50:28;;;;;;;3.85;2.90;;;11.30;99.90;;;;;;5038081;28;20045;-49
2022/09/28 09:53:23;;;;;;;3.20;2.90;;;11.30;99.90;;;;;;5035194;28;20036;-49
2022/09/28 09:56:33;;;;;;;3.72;3.10;;;11.40;99.90;;;;;;5039952;28;20029;-50
2022/09/28 09:59:29;;;;;;;3.45;2.40;;;11.50;99.90;;;;;;5045267;28;20032;-48
2022/09/28 10:02:15;;;;;;;3.08;2.05;;;11.50;99.90;;;;;;5038623;28;20493;-47
2022/09/28 10:05:17;;;;;;;1.80;1.67;;;11.50;99.90;;;;;;5031825;28;20025;-46
2022/09/28 10:08:15;;;;;;;2.08;1.88;;;11.60;99.90;;;;;;5057636;28;20074;-48
2022/09/28 10:11:01;;;;;;;8.40;6.13;;;11.60;99.90;;;;;;5068126;28;20025;-52
2022/09/28 10:13:48;;;;;;;3.05;2.50;;;11.60;99.90;;;;;;5048288;28;20582;-47
2022/09/28 10:16:34;;;;;;;1.77;1.67;;;11.60;99.90;;;;;;5065152;28;20029;-46
2022/09/28 10:19:29;;;;;;;2.85;1.58;;;11.60;99.90;;;;;;5048036;28;20032;-49
2022/09/28 10:22:19;;;;;;;2.40;1.90;;;11.50;99.90;;;;;;5059906;28;20029;-53
2022/09/28 10:25:07;;;;;;;2.28;1.80;;;11.50;99.90;;;;;;5053610;28;20041;-47
2022/09/28 10:27:55;;;;;;;1.80;1.42;;;11.40;99.90;;;;;;5042732;28;20059;-50
2022/09/28 10:30:42;;;;;;;1.50;1.40;;;11.30;99.90;;;;;;5069052;28;20083;-54
2022/09/28 10:33:31;;;;;;;3.10;2.22;;;11.10;99.90;;;;;;5060950;28;20032;-54
2022/09/28 10:36:17;;;;;;;6.88;3.75;;;11.00;99.90;;;;;;5053507;28;20108;-54
2022/09/28 10:39:04;;;;;;;3.55;1.73;;;11.00;99.90;;;;;;5056227;28;20048;-49
2022/09/28 10:41:51;;;;;;;1.30;1.20;;;11.00;99.90;;;;;;5037022;28;20024;-46
2022/09/28 10:44:48;;;;;;;1.60;1.50;;;11.00;99.90;;;;;;5037745;28;20033;-48
2022/09/28 10:47:35;;;;;;;1.73;1.58;;;11.10;99.90;;;;;;5064368;28;20029;-48
2022/09/28 10:50:26;;;;;;;2.40;1.85;;;11.40;99.90;;;;;;5057915;28;20032;-49
2022/09/28 10:53:19;;;;;;;1.85;1.70;;;11.80;99.90;;;;;;5064942;28;20104;-49
2022/09/28 10:56:17;;;;;;;2.15;1.50;;;12.20;99.90;;;;;;5049609;28;20086;-51
2022/09/28 10:59:27;;;;;;;1.58;1.40;;;12.40;99.60;;;;;;5036640;28;20094;-52
2022/09/28 11:02:46;;;;;;;1.27;1.15;;;12.50;98.80;;;;;;5052174;28;20025;-49
2022/09/28 11:05:32;;;;;;;1.50;1.40;;;12.40;98.20;;;;;;5011737;28;20037;-54
2022/09/28 11:08:28;;;;;;;1.38;1.27;;;12.30;98.20;;;;;;5053434;28;20021;-52
2022/09/28 11:11:19;;;;;;;1.17;1.13;;;12.20;98.00;;;;;;5048998;28;20036;-51
2022/09/28 11:14:36;;;;;;;0.95;0.95;;;12.10;98.00;;;;;;5052884;28;20044;-50
2022/09/28 11:17:39;;;;;;;1.17;1.15;;;11.90;98.60;;;;;;5053285;28;20074;-50
2022/09/28 11:20:25;;;;;;;2.03;1.30;;;11.70;99.10;;;;;;5067495;28;20404;-50
2022/09/28 11:23:16;;;;;;;1.40;1.30;;;11.60;99.90;;;;;;5052630;28;20447;-48
2022/09/28 11:26:06;;;;;;;1.55;1.10;;;11.70;99.80;;;;;;5040044;28;20025;-52
2022/09/28 11:28:52;;;;;;;2.20;2.00;;;11.90;99.70;;;;;;5061383;28;20059;-49
2022/09/28 11:31:38;;;;;;;1.73;1.63;;;12.20;98.60;;;;;;5058858;28;20435;-50
2022/09/28 11:34:51;;;;;;;1.52;1.45;;;12.30;98.50;;;;;;5061602;28;20486;-48
2022/09/28 11:38:07;;;;;;;1.45;1.35;;;12.10;98.80;;;;;;5056066;28;20096;-52
2022/09/28 11:41:31;;;;;;;1.40;1.30;;;12.20;98.60;;;;;;5059709;28;20404;-52
2022/09/28 11:44:38;;;;;;;1.13;1.10;;;12.30;98.60;;;;;;5056917;28;20054;-49
2022/09/28 11:47:44;;;;;;;1.60;1.50;;;12.20;98.50;;;;;;5049113;28;20396;-47
2022/09/28 11:50:40;;;;;;;1.58;1.48;;;12.10;98.40;;;;;;5059455;28;20025;-47
2022/09/28 11:53:38;;;;;;;1.58;1.48;;;11.90;98.60;;;;;;5060635;28;20025;-53
2022/09/28 11:56:42;;;;;;;1.60;1.50;;;11.80;99.30;;;;;;5059293;28;20024;-53
2022/09/28 11:59:42;;;;;;;2.00;1.60;;;11.80;99.10;;;;;;5059924;28;20083;-49
2022/09/28 12:02:35;;;;;;;1.63;1.52;;;11.90;99.10;;;;;;5060930;28;20586;-50
2022/09/28 12:05:32;;;;;;;1.80;1.70;;;11.90;99.00;;;;;;5060077;28;20033;-46
2022/09/28 12:08:48;;;;;;;1.63;1.52;;;11.90;98.80;;;;;;5041838;28;20064;-52
2022/09/28 12:11:42;;;;;;;1.60;1.50;;;11.80;99.20;;;;;;5055437;28;20025;-47
2022/09/28 12:14:33;;;;;;;1.77;1.67;;;11.90;99.50;;;;;;5042176;28;20382;-47
2022/09/28 12:17:47;;;;;;;1.42;1.33;;;11.90;99.40;;;;;;5056654;28;20021;-46
2022/09/28 12:20:38;;;;;;;2.05;1.80;;;11.80;99.70;;;;;;5039422;28;20393;-52
2022/09/28 12:23:32;;;;;;;1.40;1.30;;;11.70;99.90;;;;;;5055384;28;20052;-50
2022/09/28 12:26:33;;;;;;;1.67;1.58;;;11.80;99.90;;;;;;5054795;28;20029;-49
2022/09/28 12:29:28;;;;;;;2.70;1.50;;;11.70;99.90;;;;;;5061531;28;20129;-52
2022/09/28 12:32:37;;;;;;;3.03;1.80;;;11.50;99.90;;;;;;5046221;28;20400;-56
2022/09/28 12:35:26;;;;;;;2.97;2.13;;;11.40;99.90;;;;;;5061543;28;20109;-55
2022/09/28 12:38:24;;;;;;;1.90;1.70;;;11.30;99.90;;;;;;5060538;28;20049;-51
2022/09/28 12:41:18;;;;;;;4.00;2.00;;;11.30;99.90;;;;;;5057440;28;20025;-54
2022/09/28 12:44:30;;;;;;;2.95;2.20;;;11.30;99.90;;;;;;5061725;28;20025;-49
2022/09/28 12:47:25;;;;;;;2.33;2.08;;;11.50;99.90;;;;;;5061365;28;20039;-56
2022/09/28 12:50:22;;;;;;;3.85;3.15;;;11.60;99.90;;;;;;5056927;28;20063;-49
2022/09/28 12:53:43;;;;;;;3.90;2.40;;;11.80;99.90;;;;;;5053223;28;20378;-51
2022/09/28 12:56:44;;;;;;;2.30;2.10;;;12.00;99.90;;;;;;5054722;28;20535;-53
2022/09/28 12:59:35;;;;;;;2.00;1.80;;;12.00;99.90;;;;;;5050959;28;20029;-53
2022/09/28 13:02:43;;;;;;;3.33;2.05;;;11.90;99.90;;;;;;5049717;28;20546;-49
2022/09/28 13:05:33;;;;;;;2.53;1.98;;;11.90;99.90;;;;;;5059225;28;20020;-51
2022/09/28 13:08:45;;;;;;;1.92;1.80;;;11.80;99.90;;;;;;5062382;28;20037;-52
2022/09/28 13:12:03;;;;;;;2.15;1.98;;;11.80;99.90;;;;;;5055714;28;20017;-50
2022/09/28 13:15:04;;;;;;;2.22;1.98;;;11.90;99.90;;;;;;5054613;28;20028;-49
2022/09/28 13:18:22;;;;;;;2.08;1.80;;;12.60;99.90;;;;;;5055188;28;20758;-49
2022/09/28 13:21:31;;;;;;;2.03;1.70;;;12.60;99.90;;;;;;5052601;28;20032;-52
2022/09/28 13:24:27;;;;;;;2.28;2.08;;;12.20;99.90;;;;;;5057046;28;20095;-54
2022/09/28 13:27:32;;;;;;;1.98;1.75;;;11.80;99.90;;;;;;5058836;28;20029;-54
2022/09/28 13:30:18;;;;;;;2.30;1.80;;;11.60;99.90;;;;;;5058308;28;20031;-52
2022/09/28 13:33:09;;;;;;;2.15;1.90;;;11.80;99.90;;;;;;5053460;28;20031;-55
2022/09/28 13:35:55;;;;;;;1.92;1.73;;;11.80;99.90;;;;;;5055839;28;20025;-52
2022/09/28 13:38:48;;;;;;;1.90;1.80;;;12.00;99.90;;;;;;5059609;28;20032;-52
2022/09/28 13:41:39;;;;;;;2.10;1.90;;;11.90;99.90;;;;;;5056503;28;20078;-53
2022/09/28 13:44:36;;;;;;;2.60;1.90;;;11.80;99.90;;;;;;5059974;28;20013;-50
2022/09/28 13:47:53;;;;;;;2.30;2.10;;;11.80;99.90;;;;;;5057896;28;20055;-52
2022/09/28 13:51:03;;;;;;;2.33;2.08;;;11.90;99.90;;;;;;5058428;28;20020;-52
2022/09/28 13:54:24;;;;;;;2.25;2.03;;;11.70;99.90;;;;;;5056896;28;20068;-54
2022/09/28 13:57:33;;;;;;;1.98;1.88;;;12.00;99.90;;;;;;5045226;28;20128;-49
2022/09/28 14:00:49;;;;;;;2.38;1.92;;;12.20;99.90;;;;;;5044454;28;20108;-46
2022/09/28 14:03:52;;;;;;;2.42;2.22;;;12.00;99.90;;;;;;5050898;28;20021;-51
2022/09/28 14:06:52;;;;;;;8.15;2.80;;;12.30;99.90;;;;;;5042569;28;20052;-50
2022/09/28 14:09:43;;;;;;;5.43;2.40;;;12.30;99.90;;;;;;5052872;28;20029;-50
2022/09/28 14:12:31;;;;;;;6.45;3.97;;;12.30;99.90;;;;;;5049561;28;20108;-54
2022/09/28 14:15:42;;;;;;;4.22;2.50;;;12.40;99.90;;;;;;5055104;28;20044;-48
2022/09/28 14:18:32;;;;;;;2.88;2.53;;;12.30;99.90;;;;;;5053171;28;20427;-53
2022/09/28 14:21:39;;;;;;;2.72;2.47;;;12.30;99.90;;;;;;5050457;28;20072;-49
2022/09/28 14:25:18;;;;;;;2.97;2.65;;;12.40;99.90;;;;;;5048084;28;20089;-46
2022/09/28 14:28:40;;;;;;;3.42;3.13;;;12.50;99.90;;;;;;5040716;28;20069;-51
2022/09/28 14:31:28;;;;;;;2.88;2.65;;;12.50;99.90;;;;;;5041711;28;20071;-49
2022/09/28 14:34:37;;;;;;;3.20;2.80;;;12.50;99.90;;;;;;5044123;28;20032;-54
2022/09/28 14:44:12;;;;;;;3.30;2.90;;;12.40;99.90;;;;;;5037190;28;20044;-50
2022/09/28 14:47:32;;;;;;;3.35;3.05;;;12.20;99.90;;;;;;5046292;28;20444;-52
2022/09/28 14:50:28;;;;;;;3.22;2.90;;;12.00;99.90;;;;;;5050886;28;20040;-50
2022/09/28 14:53:19;;;;;;;4.20;3.10;;;12.20;99.90;;;;;;5054220;28;20025;-52
2022/09/28 14:56:08;;;;;;;4.05;3.17;;;12.70;99.90;;;;;;5054353;28;20032;-50
2022/09/28 14:58:57;;;;;;;5.88;4.47;;;13.00;99.90;;;;;;5066748;28;20397;-54
2022/09/28 15:01:54;;;;;;;3.22;2.90;;;14.10;99.80;;;;;;5056241;28;20492;-49
2022/09/28 15:04:58;;;;;;;4.80;3.25;;;15.50;96.80;;;;;;5056638;28;20036;-50
2022/09/28 15:07:49;;;;;;;10.15;6.80;;;16.10;94.60;;;;;;5045240;28;20680;-51
2022/09/28 15:10:40;;;;;;;4.93;3.47;;;15.80;94.80;;;;;;5047562;28;20489;-50
2022/09/28 15:13:27;;;;;;;4.40;3.80;;;15.20;95.00;;;;;;5049437;28;20102;-49
2022/09/28 15:16:16;;;;;;;6.95;5.18;;;14.20;96.20;;;;;;5048602;28;20032;-49
2022/09/28 15:19:27;;;;;;;6.40;4.75;;;13.70;97.50;;;;;;5046960;28;20104;-54